Time;durP1;ratioP1;P1;durP2;ratioP2;P2;SDS_P1;SDS_P2;PMS_P1;PMS_P2;Temp;Humidity;BMP_temperature;BMP_pressure;BME280_temperature;BME280_humidity;BME280_pressure;Samples;Min_cycle;Max_cycle;Signal;HPM_P1;HPM_P2
2021/01/05 00:01:56;;;;;;;34.50;16.70;;;1.40;99.90;;;;;;5053236;28;20174;-71
2021/01/05 00:04:21;;;;;;;35.60;16.93;;;1.50;99.90;;;;;;5053352;28;20208;-71
2021/01/05 00:06:47;;;;;;;34.67;19.33;;;1.40;99.90;;;;;;5035103;28;20187;-71
2021/01/05 00:09:12;;;;;;;37.53;17.90;;;1.40;99.90;;;;;;5053139;28;20216;-71
2021/01/05 00:12:09;;;;;;;41.70;18.43;;;1.40;99.90;;;;;;5053148;28;20174;-71
2021/01/05 00:14:35;;;;;;;38.47;19.83;;;1.40;99.90;;;;;;5044884;28;20211;-73
2021/01/05 00:17:03;;;;;;;34.67;19.20;;;1.40;99.90;;;;;;5053663;28;20394;-72
2021/01/05 00:19:29;;;;;;;33.17;17.50;;;1.30;99.90;;;;;;5060884;28;20434;-72
2021/01/05 00:21:54;;;;;;;34.93;17.97;;;1.40;99.90;;;;;;5061068;28;20414;-71
2021/01/05 00:24:20;;;;;;;38.37;17.57;;;1.30;99.90;;;;;;5058795;28;20536;-71
2021/01/05 00:26:46;;;;;;;35.00;18.90;;;1.30;99.90;;;;;;5052576;28;20175;-71
2021/01/05 00:29:11;;;;;;;29.73;16.03;;;1.30;99.90;;;;;;5052481;28;20189;-71
2021/01/05 00:31:38;;;;;;;31.53;15.70;;;1.30;99.90;;;;;;5052378;28;20541;-71
2021/01/05 00:34:04;;;;;;;28.50;16.07;;;1.40;99.90;;;;;;5051974;28;20210;-71
2021/01/05 00:36:30;;;;;;;38.03;17.30;;;1.30;99.90;;;;;;5052166;28;20443;-71
2021/01/05 00:38:56;;;;;;;41.40;16.97;;;1.30;99.90;;;;;;5052487;28;20431;-71
2021/01/05 00:41:22;;;;;;;27.60;17.07;;;1.30;99.90;;;;;;5052206;28;20425;-71
2021/01/05 00:43:48;;;;;;;31.67;16.43;;;1.30;99.90;;;;;;5052152;28;20508;-71
2021/01/05 00:46:14;;;;;;;26.63;14.40;;;1.40;99.90;;;;;;5052271;28;20179;-72
2021/01/05 00:48:40;;;;;;;29.53;15.70;;;1.40;99.90;;;;;;5052267;28;21138;-72
2021/01/05 00:51:06;;;;;;;26.83;16.33;;;1.40;99.90;;;;;;5052374;28;20512;-72
2021/01/05 00:53:32;;;;;;;32.93;16.70;;;1.40;99.90;;;;;;5052100;28;20650;-72
2021/01/05 00:55:57;;;;;;;27.70;17.07;;;1.40;99.90;;;;;;5051945;28;20183;-72
2021/01/05 00:58:23;;;;;;;27.70;16.20;;;1.40;99.90;;;;;;5051860;28;20418;-72
2021/01/05 01:00:50;;;;;;;28.93;15.47;;;1.40;99.90;;;;;;5052110;28;20569;-72
2021/01/05 01:03:19;;;;;;;31.87;17.70;;;1.40;99.90;;;;;;5051415;28;20414;-72
2021/01/05 01:05:44;;;;;;;32.80;16.47;;;1.40;99.90;;;;;;5051884;28;20414;-72
2021/01/05 01:08:11;;;;;;;28.20;16.00;;;1.40;99.90;;;;;;5051835;28;20420;-73
2021/01/05 01:10:38;;;;;;;24.77;14.80;;;1.40;99.90;;;;;;5051773;28;20190;-72
2021/01/05 01:13:04;;;;;;;29.53;17.03;;;1.40;99.90;;;;;;5051848;28;20421;-72
2021/01/05 01:15:29;;;;;;;31.77;15.07;;;1.40;99.90;;;;;;5051609;28;20464;-72
2021/01/05 01:17:55;;;;;;;35.73;17.77;;;1.40;99.90;;;;;;5051762;28;20459;-72
2021/01/05 01:20:20;;;;;;;30.87;16.67;;;1.30;99.90;;;;;;5051654;28;20274;-72
2021/01/05 01:22:46;;;;;;;26.30;15.80;;;1.40;99.90;;;;;;5051728;28;20635;-72
2021/01/05 01:25:11;;;;;;;28.03;17.00;;;1.30;99.90;;;;;;5051684;28;20705;-72
2021/01/05 01:27:37;;;;;;;30.20;17.53;;;1.30;99.90;;;;;;5051466;28;20273;-72
2021/01/05 01:30:04;;;;;;;30.60;17.73;;;1.30;99.90;;;;;;5051656;28;20233;-73
2021/01/05 01:32:30;;;;;;;35.50;16.40;;;1.30;99.90;;;;;;5051310;28;20186;-73
2021/01/05 01:34:55;;;;;;;28.87;16.50;;;1.40;99.90;;;;;;5051582;28;21094;-72
2021/01/05 01:37:20;;;;;;;33.03;17.73;;;1.40;99.90;;;;;;5051411;28;20225;-72
2021/01/05 01:39:46;;;;;;;28.80;17.80;;;1.40;99.90;;;;;;5051265;28;20281;-72
2021/01/05 01:42:16;;;;;;;27.00;17.20;;;1.40;99.90;;;;;;5051463;28;20236;-72
2021/01/05 01:44:42;;;;;;;34.00;18.93;;;1.40;99.90;;;;;;5051621;28;20615;-71
2021/01/05 01:47:23;;;;;;;31.83;17.50;;;1.50;99.90;;;;;;5051436;28;20492;-71
2021/01/05 01:49:52;;;;;;;32.50;16.53;;;1.40;99.90;;;;;;5051403;28;20457;-71
2021/01/05 01:52:31;;;;;;;31.50;17.00;;;1.40;99.90;;;;;;5051406;28;20409;-71
2021/01/05 01:55:21;;;;;;;32.40;17.90;;;1.40;99.90;;;;;;5051551;28;20448;-71
2021/01/05 01:58:06;;;;;;;28.03;17.70;;;1.40;99.90;;;;;;5051245;28;20761;-71
2021/01/05 02:00:59;;;;;;;27.60;16.40;;;1.40;99.90;;;;;;5051369;28;20945;-71
2021/01/05 02:03:43;;;;;;;36.20;19.47;;;1.40;99.90;;;;;;5051374;28;20485;-71
2021/01/05 02:06:44;;;;;;;31.43;16.80;;;1.40;99.90;;;;;;5051262;28;20924;-72
2021/01/05 02:09:26;;;;;;;31.53;15.60;;;1.40;99.90;;;;;;5051114;28;20404;-72
2021/01/05 02:12:20;;;;;;;32.80;16.40;;;1.40;99.90;;;;;;5043566;28;20409;-72
2021/01/05 02:15:04;;;;;;;26.77;16.50;;;1.40;99.90;;;;;;5054253;28;20590;-72
2021/01/05 02:17:57;;;;;;;29.53;17.97;;;1.40;99.90;;;;;;5054921;28;20405;-72
2021/01/05 02:20:31;;;;;;;33.87;17.37;;;1.40;99.90;;;;;;5054757;28;20830;-72
2021/01/05 02:23:21;;;;;;;32.93;17.57;;;1.40;99.90;;;;;;5055022;28;21027;-71
2021/01/05 02:25:56;;;;;;;29.43;18.20;;;1.40;99.90;;;;;;5054936;28;20403;-72
2021/01/05 02:28:28;;;;;;;28.43;16.70;;;1.40;99.90;;;;;;5054697;28;20396;-71
2021/01/05 02:31:11;;;;;;;27.40;17.87;;;1.40;99.90;;;;;;5054757;28;20428;-72
2021/01/05 02:33:56;;;;;;;30.13;16.40;;;1.40;99.90;;;;;;5054613;28;20472;-72
2021/01/05 02:36:55;;;;;;;25.77;16.70;;;1.40;99.90;;;;;;5054600;28;20975;-73
2021/01/05 02:40:07;;;;;;;32.90;15.33;;;1.40;99.90;;;;;;5054646;28;20508;-73
2021/01/05 02:43:02;;;;;;;31.07;17.20;;;1.40;99.90;;;;;;5054684;28;20402;-73
2021/01/05 02:45:36;;;;;;;25.53;14.47;;;1.40;99.90;;;;;;5054767;28;20401;-73
2021/01/05 02:48:33;;;;;;;28.40;16.50;;;1.40;99.90;;;;;;5054599;28;20413;-73
2021/01/05 02:51:53;;;;;;;32.47;16.30;;;1.40;99.90;;;;;;5054617;28;20468;-73
2021/01/05 02:54:35;;;;;;;27.53;16.30;;;1.40;99.90;;;;;;5053161;28;20457;-73
2021/01/05 02:57:21;;;;;;;28.20;16.50;;;1.40;99.90;;;;;;5054334;28;20401;-73
2021/01/05 03:00:32;;;;;;;28.90;15.57;;;1.40;99.90;;;;;;5054340;28;20508;-73
2021/01/05 03:03:38;;;;;;;30.83;14.80;;;1.40;99.90;;;;;;5053886;28;20424;-73
2021/01/05 03:06:18;;;;;;;28.50;15.93;;;1.40;99.90;;;;;;5054402;28;20521;-73
2021/01/05 03:09:03;;;;;;;26.77;16.93;;;1.40;99.90;;;;;;5054323;28;20401;-74
2021/01/05 03:11:47;;;;;;;29.17;15.33;;;1.40;99.90;;;;;;5054080;28;20406;-73
2021/01/05 03:14:26;;;;;;;27.77;16.50;;;1.40;99.90;;;;;;5054003;28;20456;-73
2021/01/05 03:17:00;;;;;;;27.97;15.40;;;1.40;99.90;;;;;;5035969;28;20417;-72
2021/01/05 03:19:36;;;;;;;27.97;15.07;;;1.40;99.90;;;;;;5054135;28;20443;-72
2021/01/05 03:22:05;;;;;;;28.60;15.80;;;1.50;99.90;;;;;;5054162;28;20771;-72
2021/01/05 03:24:31;;;;;;;24.67;14.50;;;1.50;99.90;;;;;;5053827;28;20405;-72
2021/01/05 03:26:58;;;;;;;24.37;15.97;;;1.40;99.90;;;;;;5053190;28;20509;-73
2021/01/05 03:29:24;;;;;;;26.40;15.17;;;1.40;99.90;;;;;;5053729;28;20513;-72
2021/01/05 03:31:54;;;;;;;24.40;13.27;;;1.50;99.90;;;;;;5053775;28;20831;-72
2021/01/05 03:34:20;;;;;;;25.40;14.60;;;1.50;99.90;;;;;;5053583;28;20198;-72
2021/01/05 03:36:46;;;;;;;27.27;15.70;;;1.50;99.90;;;;;;5053579;28;20455;-72
2021/01/05 03:39:12;;;;;;;31.13;17.83;;;1.50;99.90;;;;;;5053688;28;20170;-72
2021/01/05 03:41:38;;;;;;;25.43;15.43;;;1.50;99.90;;;;;;5053551;28;20405;-72
2021/01/05 03:44:04;;;;;;;22.87;14.07;;;1.50;99.90;;;;;;5053501;28;20984;-72
2021/01/05 03:46:30;;;;;;;22.77;13.47;;;1.50;99.90;;;;;;5053157;28;20179;-72
2021/01/05 03:48:57;;;;;;;24.27;15.23;;;1.40;99.90;;;;;;5053331;28;20791;-72
2021/01/05 03:51:22;;;;;;;28.37;15.93;;;1.50;99.90;;;;;;5053297;28;20425;-72
2021/01/05 03:53:48;;;;;;;25.70;15.57;;;1.50;99.90;;;;;;5053675;28;20453;-72
2021/01/05 03:56:14;;;;;;;24.63;12.37;;;1.50;99.90;;;;;;5053310;28;20203;-72
2021/01/05 03:58:40;;;;;;;23.67;13.00;;;1.50;99.90;;;;;;5053181;28;20984;-72
2021/01/05 04:01:05;;;;;;;21.63;14.93;;;1.50;99.90;;;;;;5053629;28;20187;-72
2021/01/05 04:03:31;;;;;;;27.53;14.30;;;1.50;99.90;;;;;;5053298;28;20174;-72
2021/01/05 04:05:56;;;;;;;25.33;14.10;;;1.50;99.90;;;;;;5053303;28;20163;-72
2021/01/05 04:08:22;;;;;;;21.33;14.03;;;1.60;99.90;;;;;;5053088;28;20167;-72
2021/01/05 04:10:48;;;;;;;21.20;14.40;;;1.60;99.90;;;;;;5052908;28;20581;-72
2021/01/05 04:13:13;;;;;;;23.83;14.27;;;1.50;99.90;;;;;;5053260;28;20178;-72
2021/01/05 04:15:39;;;;;;;22.47;14.30;;;1.60;99.90;;;;;;5053073;28;20182;-73
2021/01/05 04:18:05;;;;;;;21.50;15.27;;;1.50;99.90;;;;;;5052932;28;20175;-73
2021/01/05 04:20:30;;;;;;;22.37;12.73;;;1.50;99.90;;;;;;5053236;28;20729;-72
2021/01/05 04:22:57;;;;;;;18.37;13.07;;;1.60;99.90;;;;;;5055052;28;20418;-72
2021/01/05 04:25:23;;;;;;;24.23;15.50;;;1.50;99.90;;;;;;5063207;28;20175;-72
2021/01/05 04:27:50;;;;;;;22.00;13.87;;;1.50;99.90;;;;;;5065450;28;20431;-73
2021/01/05 04:30:28;;;;;;;23.10;14.27;;;1.50;99.90;;;;;;5062800;28;20465;-72
2021/01/05 04:32:58;;;;;;;20.30;11.67;;;1.50;99.90;;;;;;5052629;28;20514;-72
2021/01/05 04:35:24;;;;;;;27.60;15.33;;;1.50;99.90;;;;;;5052521;28;20860;-72
2021/01/05 04:37:50;;;;;;;19.53;11.40;;;1.50;99.90;;;;;;5051345;28;20410;-72
2021/01/05 04:40:33;;;;;;;18.73;11.90;;;1.50;99.90;;;;;;5052322;28;20425;-72
2021/01/05 04:43:08;;;;;;;19.87;12.50;;;1.50;99.90;;;;;;5052423;28;20422;-72
2021/01/05 04:46:01;;;;;;;23.43;14.53;;;1.50;99.90;;;;;;5052248;28;20409;-71
2021/01/05 04:48:38;;;;;;;20.30;12.80;;;1.50;99.90;;;;;;5038520;28;20453;-72
2021/01/05 04:51:12;;;;;;;18.70;12.20;;;1.50;99.90;;;;;;5052159;28;20950;-72
2021/01/05 04:54:19;;;;;;;21.20;13.37;;;1.50;99.90;;;;;;5052110;28;20445;-72
2021/01/05 04:57:10;;;;;;;19.00;12.80;;;1.50;99.90;;;;;;5003132;28;20406;-72
2021/01/05 05:00:05;;;;;;;16.93;12.00;;;1.50;99.90;;;;;;5052101;28;20418;-72
2021/01/05 05:02:30;;;;;;;15.00;12.00;;;1.50;99.90;;;;;;5042865;28;20406;-72
2021/01/05 05:05:15;;;;;;;18.83;12.70;;;1.50;99.90;;;;;;5051976;28;20412;-72
2021/01/05 05:08:18;;;;;;;17.97;13.20;;;1.50;99.90;;;;;;5051748;28;20198;-72
2021/01/05 05:10:58;;;;;;;20.27;11.23;;;1.50;99.90;;;;;;5051843;28;20482;-72
2021/01/05 05:13:42;;;;;;;21.33;12.63;;;1.50;99.90;;;;;;5051876;28;20396;-72
2021/01/05 05:16:50;;;;;;;17.07;12.90;;;1.50;99.90;;;;;;5052022;28;20401;-72
2021/01/05 05:19:37;;;;;;;19.43;12.70;;;1.60;99.90;;;;;;5051619;28;20417;-72
2021/01/05 05:22:12;;;;;;;17.77;12.07;;;1.60;99.90;;;;;;5051788;28;20401;-72
2021/01/05 05:24:57;;;;;;;21.43;14.10;;;1.50;99.90;;;;;;5051585;28;20928;-72
2021/01/05 05:27:39;;;;;;;20.43;12.10;;;1.60;99.90;;;;;;5051543;28;20413;-72
2021/01/05 05:30:11;;;;;;;25.33;13.80;;;1.60;99.90;;;;;;5051752;28;20423;-72
2021/01/05 05:32:54;;;;;;;17.97;12.50;;;1.60;99.90;;;;;;5051192;28;20433;-72
2021/01/05 05:35:49;;;;;;;18.63;12.47;;;1.60;99.90;;;;;;5051513;28;20457;-73
2021/01/05 05:38:29;;;;;;;17.87;11.93;;;1.50;99.90;;;;;;5051586;28;20405;-72
2021/01/05 05:41:16;;;;;;;17.27;11.97;;;1.50;99.90;;;;;;5051563;28;20429;-72
2021/01/05 05:44:01;;;;;;;17.40;12.03;;;1.50;99.90;;;;;;5051721;28;20435;-72
2021/01/05 05:46:35;;;;;;;18.50;13.27;;;1.60;99.90;;;;;;5051465;28;20400;-72
2021/01/05 05:49:26;;;;;;;17.07;12.20;;;1.50;99.90;;;;;;5053308;28;20410;-72
2021/01/05 05:51:56;;;;;;;20.50;12.13;;;1.60;99.90;;;;;;5055544;28;20500;-72
2021/01/05 05:54:23;;;;;;;14.37;11.57;;;1.50;99.90;;;;;;5055650;28;20980;-73
2021/01/05 05:56:51;;;;;;;19.50;12.20;;;1.50;99.90;;;;;;5055602;28;20401;-72
2021/01/05 05:59:20;;;;;;;21.10;11.13;;;1.60;99.90;;;;;;5055517;28;20418;-72
2021/01/05 06:01:46;;;;;;;17.80;11.57;;;1.60;99.90;;;;;;5055597;28;20425;-73
2021/01/05 06:04:13;;;;;;;20.60;13.00;;;1.50;99.90;;;;;;5055564;28;20409;-72
2021/01/05 06:06:41;;;;;;;15.67;10.33;;;1.50;99.90;;;;;;5055255;28;20409;-72
2021/01/05 06:09:07;;;;;;;14.90;9.97;;;1.50;99.90;;;;;;5055298;28;20405;-72
2021/01/05 06:11:33;;;;;;;15.83;10.40;;;1.50;99.90;;;;;;5055102;28;20531;-72
2021/01/05 06:14:03;;;;;;;17.50;11.97;;;1.60;99.90;;;;;;5055058;28;20897;-72
2021/01/05 06:16:33;;;;;;;19.00;11.60;;;1.60;99.90;;;;;;5054630;28;20427;-72
2021/01/05 06:18:58;;;;;;;18.00;11.40;;;1.60;99.90;;;;;;5055046;28;20409;-72
2021/01/05 06:21:24;;;;;;;19.57;13.63;;;1.70;99.90;;;;;;5054902;28;20437;-72
2021/01/05 06:23:50;;;;;;;18.40;12.80;;;1.60;99.90;;;;;;5054836;28;20691;-71
2021/01/05 06:26:17;;;;;;;23.27;13.13;;;1.70;99.90;;;;;;5054996;28;20885;-72
2021/01/05 06:28:43;;;;;;;18.87;12.77;;;1.70;99.90;;;;;;5037000;28;20198;-72
2021/01/05 06:31:09;;;;;;;22.53;13.30;;;1.70;99.90;;;;;;5054885;28;20984;-72
2021/01/05 06:33:35;;;;;;;21.80;11.70;;;1.60;99.90;;;;;;5054646;28;20191;-72
2021/01/05 06:36:00;;;;;;;20.00;14.00;;;1.70;99.90;;;;;;5054893;28;20420;-72
2021/01/05 06:38:26;;;;;;;23.33;15.20;;;1.70;99.90;;;;;;5054758;28;20535;-72
2021/01/05 06:40:51;;;;;;;23.43;13.20;;;1.70;99.90;;;;;;5054586;28;20191;-72
2021/01/05 06:43:17;;;;;;;19.93;14.17;;;1.70;99.90;;;;;;5054558;28;20171;-72
2021/01/05 06:45:42;;;;;;;24.50;14.30;;;1.70;99.90;;;;;;5054601;28;20179;-72
2021/01/05 06:48:08;;;;;;;23.47;14.63;;;1.70;99.90;;;;;;5036559;28;20175;-72
2021/01/05 06:50:34;;;;;;;26.73;14.70;;;1.70;99.90;;;;;;5054282;28;20191;-72
2021/01/05 06:52:59;;;;;;;19.27;12.97;;;1.70;99.90;;;;;;5054418;28;20451;-72
2021/01/05 06:55:25;;;;;;;28.93;14.60;;;1.70;99.90;;;;;;5054393;28;20202;-72
2021/01/05 06:57:51;;;;;;;22.43;13.87;;;1.70;99.90;;;;;;5054088;28;20270;-72
2021/01/05 07:00:20;;;;;;;24.90;15.60;;;1.70;99.90;;;;;;5053116;28;20256;-72
2021/01/05 07:02:46;;;;;;;22.33;14.93;;;1.60;99.90;;;;;;5036676;28;20413;-72
2021/01/05 07:05:11;;;;;;;31.87;14.53;;;1.60;99.90;;;;;;5054424;28;20401;-73
2021/01/05 07:07:37;;;;;;;24.10;15.00;;;1.70;99.90;;;;;;5054518;28;20562;-72
2021/01/05 07:10:05;;;;;;;25.90;14.97;;;1.60;99.90;;;;;;5054402;28;20508;-72
2021/01/05 07:12:30;;;;;;;27.77;16.27;;;1.70;99.90;;;;;;5053995;28;20163;-72
2021/01/05 07:14:56;;;;;;;29.77;18.77;;;1.60;99.90;;;;;;5036292;28;20456;-73
2021/01/05 07:17:21;;;;;;;32.70;16.47;;;1.60;99.90;;;;;;5053896;28;20320;-72
2021/01/05 07:19:46;;;;;;;25.60;14.77;;;1.70;99.90;;;;;;5054100;28;20202;-72
2021/01/05 07:22:12;;;;;;;26.63;14.40;;;1.60;99.90;;;;;;5054161;28;20163;-72
2021/01/05 07:24:37;;;;;;;33.70;18.03;;;1.70;99.90;;;;;;5053915;28;20262;-72
2021/01/05 07:27:04;;;;;;;34.80;17.80;;;1.70;99.90;;;;;;5053705;28;20179;-72
2021/01/05 07:29:30;;;;;;;27.17;16.63;;;1.70;99.90;;;;;;5053772;28;20260;-72
2021/01/05 07:31:55;;;;;;;33.83;17.87;;;1.60;99.90;;;;;;5053556;28;20401;-72
2021/01/05 07:34:20;;;;;;;37.30;17.30;;;1.70;99.90;;;;;;5053596;28;20682;-72
2021/01/05 07:36:50;;;;;;;30.47;17.73;;;1.70;99.90;;;;;;5035741;28;20225;-72
2021/01/05 07:39:21;;;;;;;38.43;20.53;;;1.70;99.90;;;;;;5053835;28;20648;-72
2021/01/05 07:41:49;;;;;;;30.07;17.70;;;1.70;99.90;;;;;;5053928;28;20500;-72
2021/01/05 07:44:15;;;;;;;29.53;15.53;;;1.70;99.90;;;;;;5053628;28;20411;-71
2021/01/05 07:46:41;;;;;;;29.53;16.40;;;1.70;99.90;;;;;;5053442;28;20406;-71
2021/01/05 07:49:07;;;;;;;30.43;16.63;;;1.70;99.90;;;;;;5053329;28;20463;-71
2021/01/05 07:51:32;;;;;;;28.70;16.67;;;1.70;99.90;;;;;;5053356;28;20527;-72
2021/01/05 07:53:59;;;;;;;28.27;17.30;;;1.70;99.90;;;;;;5053279;28;20488;-72
2021/01/05 07:56:24;;;;;;;30.60;18.53;;;1.60;99.90;;;;;;5053261;28;20163;-71
2021/01/05 07:58:49;;;;;;;28.50;17.27;;;1.70;99.90;;;;;;5053126;28;20927;-71
2021/01/05 08:01:15;;;;;;;36.10;19.10;;;1.70;99.90;;;;;;5053032;28;20195;-71
2021/01/05 08:03:40;;;;;;;24.57;13.80;;;1.70;99.90;;;;;;5053142;28;20178;-71
2021/01/05 08:06:07;;;;;;;33.33;16.40;;;1.70;99.90;;;;;;5053022;28;20171;-71
2021/01/05 08:08:33;;;;;;;31.83;18.30;;;1.70;99.90;;;;;;5052796;28;20174;-71
2021/01/05 08:10:58;;;;;;;28.93;16.47;;;1.70;99.90;;;;;;5052146;28;20933;-71
2021/01/05 08:13:24;;;;;;;32.57;16.30;;;1.70;99.90;;;;;;5052577;28;20175;-71
2021/01/05 08:15:49;;;;;;;26.60;18.10;;;1.70;99.90;;;;;;5053109;28;20171;-71
2021/01/05 08:18:15;;;;;;;29.63;15.67;;;1.80;99.90;;;;;;5052950;28;20595;-71
2021/01/05 08:20:41;;;;;;;32.13;18.23;;;1.80;99.90;;;;;;5052957;28;20287;-71
2021/01/05 08:23:06;;;;;;;29.83;17.80;;;1.80;99.90;;;;;;5053069;28;20397;-71
2021/01/05 08:25:32;;;;;;;40.23;17.70;;;1.80;99.90;;;;;;5035205;28;20179;-70
2021/01/05 08:27:59;;;;;;;28.50;17.10;;;1.80;99.90;;;;;;5052800;28;20182;-71
2021/01/05 08:30:31;;;;;;;32.50;17.90;;;1.80;99.90;;;;;;5050696;28;20460;-71
2021/01/05 08:33:03;;;;;;;37.00;17.50;;;1.80;99.90;;;;;;5064225;28;20460;-71
2021/01/05 08:35:29;;;;;;;31.00;18.30;;;1.80;99.90;;;;;;5055206;28;20456;-72
2021/01/05 08:37:55;;;;;;;31.17;17.53;;;1.90;99.90;;;;;;5055429;28;20409;-70
2021/01/05 08:40:29;;;;;;;33.73;16.03;;;1.90;99.90;;;;;;5052436;28;20683;-71
2021/01/05 08:42:56;;;;;;;34.13;18.83;;;1.90;99.90;;;;;;5052598;28;20423;-71
2021/01/05 08:45:21;;;;;;;25.37;15.90;;;1.90;99.90;;;;;;5052369;28;20413;-71
2021/01/05 08:47:47;;;;;;;29.47;16.53;;;1.90;99.90;;;;;;5053141;28;20443;-70
2021/01/05 08:50:28;;;;;;;28.47;17.13;;;1.90;99.90;;;;;;5052021;28;20202;-70
2021/01/05 08:52:57;;;;;;;31.03;16.27;;;1.90;99.90;;;;;;5052270;28;20433;-70
2021/01/05 08:55:23;;;;;;;29.80;18.87;;;1.90;99.90;;;;;;5052073;28;20495;-71
2021/01/05 08:57:48;;;;;;;31.23;17.30;;;1.90;99.90;;;;;;5051873;28;20761;-70
2021/01/05 09:00:15;;;;;;;31.23;17.97;;;1.90;99.90;;;;;;5051912;28;20238;-70
2021/01/05 09:02:40;;;;;;;31.50;16.77;;;2.00;99.90;;;;;;5051850;28;20174;-71
2021/01/05 09:05:07;;;;;;;31.20;16.80;;;1.90;99.90;;;;;;5033901;28;20902;-70
2021/01/05 09:07:32;;;;;;;30.00;17.27;;;2.00;99.90;;;;;;5033882;28;20225;-70
2021/01/05 09:09:58;;;;;;;31.73;17.53;;;1.90;99.90;;;;;;5051698;28;20441;-70
2021/01/05 09:12:23;;;;;;;30.23;17.43;;;2.00;99.90;;;;;;5051763;28;20171;-70
2021/01/05 09:14:48;;;;;;;35.53;18.10;;;2.00;99.90;;;;;;5051817;28;20226;-70
2021/01/05 09:17:16;;;;;;;30.73;18.77;;;2.00;99.90;;;;;;5051510;28;20644;-69
2021/01/05 09:19:41;;;;;;;27.33;16.03;;;2.10;99.90;;;;;;5051452;28;20201;-70
2021/01/05 09:22:07;;;;;;;30.90;17.83;;;2.10;99.90;;;;;;5051652;28;20480;-69
2021/01/05 09:24:32;;;;;;;25.60;16.67;;;2.10;99.90;;;;;;5051012;28;20186;-69
2021/01/05 09:26:58;;;;;;;32.87;16.90;;;2.10;99.90;;;;;;5051505;28;20650;-71
2021/01/05 09:29:25;;;;;;;27.17;15.77;;;2.10;99.90;;;;;;5051593;28;20194;-69
2021/01/05 09:31:51;;;;;;;24.97;16.87;;;2.10;99.90;;;;;;5051404;28;20545;-70
2021/01/05 09:34:19;;;;;;;24.57;16.80;;;2.10;99.90;;;;;;5051641;28;20502;-69
2021/01/05 09:36:45;;;;;;;23.90;17.17;;;2.10;99.90;;;;;;5051501;28;21001;-70
2021/01/05 09:39:14;;;;;;;27.30;16.47;;;2.10;99.90;;;;;;5051365;28;20425;-69
2021/01/05 09:41:42;;;;;;;27.80;16.40;;;2.10;99.90;;;;;;5051457;28;20483;-69
2021/01/05 09:44:09;;;;;;;26.33;16.97;;;2.10;99.90;;;;;;5051466;28;20405;-70
2021/01/05 09:46:38;;;;;;;26.23;16.13;;;2.10;99.90;;;;;;5051180;28;20424;-70
2021/01/05 09:49:04;;;;;;;27.40;16.20;;;2.10;99.90;;;;;;5051512;28;20413;-72
2021/01/05 09:51:31;;;;;;;24.87;15.20;;;2.10;99.90;;;;;;5051694;28;20479;-70
2021/01/05 09:53:57;;;;;;;24.23;17.17;;;2.10;99.90;;;;;;5051368;28;20245;-71
2021/01/05 09:56:23;;;;;;;34.70;17.33;;;2.10;99.90;;;;;;5051290;28;20410;-70
2021/01/05 09:58:48;;;;;;;26.40;17.10;;;2.10;99.90;;;;;;5051514;28;20258;-71
2021/01/05 10:01:21;;;;;;;30.73;17.00;;;2.10;99.90;;;;;;5051128;28;20464;-70
2021/01/05 10:03:47;;;;;;;24.93;13.77;;;2.20;99.90;;;;;;5051484;28;20171;-71
2021/01/05 10:06:12;;;;;;;27.07;15.40;;;2.10;99.90;;;;;;5051259;28;20836;-71
2021/01/05 10:08:38;;;;;;;26.87;16.97;;;2.20;99.90;;;;;;5051269;28;20171;-69
2021/01/05 10:11:04;;;;;;;32.63;16.57;;;2.10;99.90;;;;;;5051074;28;20198;-71
2021/01/05 10:13:30;;;;;;;32.03;16.30;;;2.10;99.90;;;;;;5051489;28;20178;-77
2021/01/05 10:15:55;;;;;;;25.87;15.03;;;2.10;99.90;;;;;;5051384;28;20401;-70
2021/01/05 10:18:21;;;;;;;26.23;14.70;;;2.10;99.90;;;;;;5050895;28;20206;-76
2021/01/05 10:20:47;;;;;;;24.03;14.67;;;2.10;99.90;;;;;;5051135;28;20579;-73
2021/01/05 10:23:13;;;;;;;30.53;17.30;;;2.10;99.90;;;;;;5051362;28;20162;-71
2021/01/05 10:25:38;;;;;;;29.00;16.30;;;2.10;99.90;;;;;;5051259;28;20405;-71
2021/01/05 10:28:04;;;;;;;22.17;14.67;;;2.10;99.90;;;;;;5050866;28;20208;-69
2021/01/05 10:30:29;;;;;;;23.87;15.30;;;2.10;99.90;;;;;;5051054;28;20198;-69
2021/01/05 10:32:55;;;;;;;20.17;13.53;;;2.10;99.90;;;;;;5051056;28;20218;-68
2021/01/05 10:35:21;;;;;;;21.80;15.23;;;2.20;99.90;;;;;;5053118;28;20209;-69
2021/01/05 10:37:47;;;;;;;27.17;15.10;;;2.20;99.90;;;;;;5054553;28;20179;-69
2021/01/05 10:40:14;;;;;;;26.00;15.50;;;2.10;99.90;;;;;;5054549;28;20429;-68
2021/01/05 10:42:42;;;;;;;26.43;16.63;;;2.20;99.90;;;;;;5054486;28;20424;-69
2021/01/05 10:45:09;;;;;;;44.90;26.17;;;2.20;99.90;;;;;;5054856;28;20413;-71
2021/01/05 10:47:35;;;;;;;60.87;34.77;;;2.20;99.90;;;;;;5054425;28;20898;-75
2021/01/05 10:50:03;;;;;;;31.03;15.60;;;2.80;99.90;;;;;;5054328;28;20431;-69
2021/01/05 10:52:28;;;;;;;25.77;16.43;;;2.40;99.90;;;;;;5054414;28;20174;-69
2021/01/05 10:54:53;;;;;;;27.67;16.40;;;2.40;99.90;;;;;;5054268;28;20468;-69
2021/01/05 10:57:19;;;;;;;31.37;16.90;;;2.30;99.90;;;;;;5054283;28;20257;-69
2021/01/05 10:59:45;;;;;;;27.73;16.00;;;2.30;99.90;;;;;;5054329;28;20205;-69
2021/01/05 11:02:10;;;;;;;28.13;15.97;;;2.30;99.90;;;;;;5054101;28;20190;-68
2021/01/05 11:04:36;;;;;;;25.13;14.97;;;2.20;99.90;;;;;;5054157;28;20164;-70
2021/01/05 11:07:04;;;;;;;26.80;16.73;;;2.10;99.90;;;;;;5054051;28;20237;-68
2021/01/05 11:09:30;;;;;;;24.00;16.30;;;2.30;99.90;;;;;;5054080;28;20425;-69
2021/01/05 11:12:01;;;;;;;24.03;13.23;;;2.30;99.90;;;;;;5054125;28;20401;-69
2021/01/05 11:14:27;;;;;;;23.30;14.20;;;2.30;99.90;;;;;;5053509;28;20683;-70
2021/01/05 11:16:54;;;;;;;25.73;15.80;;;2.30;99.90;;;;;;5053674;28;20401;-70
2021/01/05 11:19:20;;;;;;;26.83;13.70;;;2.30;99.90;;;;;;5053798;28;20428;-69
2021/01/05 11:22:06;;;;;;;21.93;12.63;;;2.30;99.90;;;;;;5054025;28;20405;-69
2021/01/05 11:24:35;;;;;;;24.30;16.23;;;2.30;99.90;;;;;;5053846;28;20406;-70
2021/01/05 11:27:02;;;;;;;20.47;12.93;;;2.30;99.90;;;;;;5054001;28;20433;-70
2021/01/05 11:29:28;;;;;;;21.23;14.23;;;2.30;99.90;;;;;;5053730;28;20792;-70
2021/01/05 11:32:02;;;;;;;19.87;12.87;;;2.40;99.90;;;;;;5053408;28;20410;-70
2021/01/05 11:34:28;;;;;;;25.77;14.47;;;2.30;99.90;;;;;;5053507;28;20189;-69
2021/01/05 11:36:58;;;;;;;20.07;14.40;;;2.30;99.90;;;;;;5053717;28;20489;-70
2021/01/05 11:39:23;;;;;;;22.10;13.00;;;2.30;99.90;;;;;;5053482;28;20975;-70
2021/01/05 11:41:49;;;;;;;20.57;12.80;;;2.30;99.90;;;;;;5053563;28;20405;-70
2021/01/05 11:44:16;;;;;;;18.27;12.03;;;2.30;99.90;;;;;;5053438;28;20175;-70
2021/01/05 11:46:42;;;;;;;21.83;13.50;;;2.30;99.90;;;;;;5052757;28;20175;-70
2021/01/05 11:49:08;;;;;;;21.80;13.80;;;2.20;99.90;;;;;;5035517;28;20490;-70
2021/01/05 11:51:36;;;;;;;21.87;11.77;;;2.20;99.90;;;;;;5053860;28;20927;-71
2021/01/05 11:54:03;;;;;;;19.90;13.70;;;2.20;99.90;;;;;;5053352;28;20198;-74
2021/01/05 11:56:31;;;;;;;16.87;13.97;;;2.30;99.90;;;;;;5053424;28;20446;-70
2021/01/05 11:58:57;;;;;;;26.90;13.27;;;2.30;99.90;;;;;;5053211;28;20930;-70
2021/01/05 12:01:24;;;;;;;21.70;13.37;;;2.30;99.90;;;;;;5053033;28;20445;-70
2021/01/05 12:03:49;;;;;;;31.00;14.43;;;2.20;99.90;;;;;;5053098;28;20412;-70
2021/01/05 12:06:21;;;;;;;27.93;13.27;;;2.20;99.90;;;;;;5052902;28;20410;-70
2021/01/05 12:08:47;;;;;;;24.43;16.67;;;2.20;99.90;;;;;;5053156;28;20393;-70
2021/01/05 12:11:22;;;;;;;21.67;14.20;;;2.30;99.90;;;;;;5053008;28;20422;-70
2021/01/05 12:13:49;;;;;;;23.53;15.17;;;2.30;99.90;;;;;;5053108;28;20428;-70
2021/01/05 12:16:26;;;;;;;27.13;15.00;;;2.30;99.90;;;;;;5053172;28;20429;-70
2021/01/05 12:18:53;;;;;;;27.40;14.20;;;2.30;99.90;;;;;;5052936;28;20820;-70
2021/01/05 12:21:26;;;;;;;26.93;15.10;;;2.20;99.90;;;;;;5052907;28;20520;-71
2021/01/05 12:23:53;;;;;;;23.27;13.57;;;2.30;99.90;;;;;;5052928;28;20402;-69
2021/01/05 12:26:23;;;;;;;23.30;14.80;;;2.30;99.90;;;;;;5052553;28;20402;-71
2021/01/05 12:28:49;;;;;;;23.27;16.17;;;2.30;99.90;;;;;;5052779;28;20781;-69
2021/01/05 12:31:14;;;;;;;23.70;14.77;;;2.30;99.90;;;;;;5052779;28;20429;-69
2021/01/05 12:33:39;;;;;;;23.17;14.17;;;2.30;99.90;;;;;;5052658;28;20708;-69
2021/01/05 12:36:05;;;;;;;26.30;15.50;;;2.30;99.90;;;;;;5053053;28;20175;-69
2021/01/05 12:38:31;;;;;;;21.57;15.57;;;2.30;99.90;;;;;;5054388;28;20209;-70
2021/01/05 12:40:56;;;;;;;24.20;14.83;;;2.30;99.90;;;;;;5057834;28;20229;-70
2021/01/05 12:43:22;;;;;;;30.80;17.47;;;2.30;99.90;;;;;;5059607;28;20175;-69
2021/01/05 12:45:47;;;;;;;21.13;14.70;;;2.30;99.90;;;;;;5055782;28;20224;-69
2021/01/05 12:48:12;;;;;;;24.43;15.60;;;2.30;99.90;;;;;;5052445;28;20203;-68
2021/01/05 12:50:38;;;;;;;28.10;16.47;;;2.30;99.90;;;;;;5052292;28;20199;-69
2021/01/05 12:53:03;;;;;;;23.93;15.47;;;2.30;99.90;;;;;;5052254;28;20639;-69